Grand Canyon National Park, AZ

03:27 MST le 02 octobre 2014 (GMT -0700)
KAZGRAND3 | Change Station
CLOSE
Current Station
Stations météorologiques personnelles
Location: Grand Canyon, AZ
Altitude: 6991 ft
Stations météo à proximité

Alt. 6991 ft 36.05 °N, 112.12 °W | Updated 5 seconds ago

Ciel dégagé
Ciel dégagé
42.5 ° F
Paraît 42 ° F
N
1.0
Vent Variable Vent de NE
Gusts 5.0 mph

Aujourd'hui
Haut(e) -- | Bas -- ° F
--% Risque de précip.
Hier
Haut(e) -- | Bas -- ° F
Precip. -- pouce
6:24 AM 6:10 PM
Premier quartier, 57% visible
Pression 30.08 pouce
Visibilité 10.0 Miles terrestres
Nuages Ciel dégagé
Refroidissement éolien 42 ° F
Point de rosée 20 ° F
Humidité 41%
Précipitations 0.00 pouce
Profondeur de la couche neigeuse 1 in , 0 in , 2 in
UV 0 sur 12
Pollen 5.70 sur 12
Qualité de l'air Non disponible.
Flu Activity Non disponible.
METAR KGCN 020954Z 06004KT 10SM CLR 03/M04 A3023 RMK AO2 SLP185 T00281039

More Conditions Fewer Conditions

Pression 30.08 pouce
Visibilité 10.0 Miles terrestres
Nuages Ciel dégagé
Refroidissement éolien 42 ° F
Point de rosée 20 ° F
Humidité 41%
Précipitations 0.00 pouce
Profondeur de la couche neigeuse 1 in , 0 in , 2 in
UV 0 sur 12
Pollen 5.70 sur 12
Qualité de l'air Non disponible.
Flu Activity Non disponible.
METAR KGCN 020954Z 06004KT 10SM CLR 03/M04 A3023 RMK AO2 SLP185 T00281039

More Conditions Fewer Conditions

10-Day Weather Forecast

Almanac

Astronomie

Oct. 02, 2014 Lever Coucher
Temps réel 06:24 MST 18:10 MST
Crépuscule civil 05:58 MST 18:36 MST
Crépuscule nautique 05:29 MST 19:05 MST
Crépuscule astronomique 04:59 MST 19:35 MST
Lune 14:10 MST Pas de coucher de lune
Durée de lumière visible 12h 37m
Longueur du jour
11h 46m
Tomorrow will be 2m 14s shorter.
Premier quartier, 57% of the Moon is Illuminated
Aujourd'hui
Premier quartier
Oct 8
Pleine lune
Oct 15
Dernier quartier
Oct 23
Nouveau
Oct 30
Premier quartier

Extrêmes aujourd'hui

State Highs State Lows

Community

WunderPhotos

Upload Photos

1,758,209 Photos téléchargées !

WunderBlogs® & News

Nearby

Épaisseur de neige

Station Depth Altitude
Promontory 1 in 7930 ft
Fry 0 in 7200 ft
Snowslide Canyon 2 in 9730 ft
Happy Jack 0 in 7630 ft
Wildcat 0 in 7850 ft

Activité sismique

Ville Distance Mag. Time & Date
No recent earthquake activity has been reported nearby.
Minimum magnitude displayed is 2.5.

Températures des eaux côtières

Lieu Température
Aucun rapport de station

Stations météo à proximité